createdAt,value
2016-07-07T00:00:03.546Z,12.4
2016-07-07T00:15:10.287Z,12.3
2016-07-07T00:30:10.251Z,12.2
2016-07-07T00:45:06.141Z,12
2016-07-07T01:00:06.034Z,11.8
2016-07-07T01:15:06.393Z,11.7
2016-07-07T01:30:01.483Z,11.7
2016-07-07T01:45:06.104Z,11.7
2016-07-07T02:00:07.666Z,11.7
2016-07-07T02:15:06.064Z,11.7
2016-07-07T02:30:06.085Z,11.6
2016-07-07T02:45:11.611Z,11.4
2016-07-07T03:00:06.038Z,11.3
2016-07-07T03:15:05.939Z,11.3
2016-07-07T03:30:06.058Z,11.2
2016-07-07T03:45:07.769Z,11.1
2016-07-07T04:00:01.500Z,11
2016-07-07T04:15:01.459Z,11
2016-07-07T04:30:01.468Z,11
2016-07-07T04:45:07.855Z,11.3
2016-07-07T05:00:01.516Z,11.6
2016-07-07T05:15:06.466Z,11.7
2016-07-07T05:30:06.113Z,12
2016-07-07T05:45:06.081Z,12.3
2016-07-07T06:00:06.139Z,12.5
2016-07-07T06:15:01.511Z,12.6
2016-07-07T06:30:01.528Z,12.9
2016-07-07T06:45:01.536Z,13
2016-07-07T07:00:06.168Z,13.9
2016-07-07T07:15:01.540Z,14.3
2016-07-07T07:30:07.881Z,15.2
2016-07-07T07:45:06.130Z,15.6
2016-07-07T08:00:06.182Z,15.9
2016-07-07T08:15:12.903Z,16.6
2016-07-07T08:30:01.550Z,17.6
2016-07-07T08:45:06.151Z,17.7
2016-07-07T09:00:01.559Z,17.8
2016-07-07T09:15:06.194Z,17.7
2016-07-07T09:30:06.151Z,18.7
2016-07-07T09:45:07.680Z,17.8
2016-07-07T10:00:06.159Z,18.4
2016-07-07T10:15:01.611Z,19
2016-07-07T10:30:01.627Z,19.5
2016-07-07T10:45:06.188Z,19.8
2016-07-07T11:00:06.207Z,19.8
2016-07-07T11:15:06.186Z,20.4
2016-07-07T11:30:07.896Z,20.5
2016-07-07T11:45:14.287Z,20.5
2016-07-07T12:00:06.205Z,20.7
2016-07-07T12:15:07.807Z,20.5
2016-07-07T12:30:01.613Z,20.7
2016-07-07T12:45:07.943Z,20.8
2016-07-07T13:00:14.649Z,20.8
2016-07-07T13:15:01.594Z,20.9
2016-07-07T13:30:07.799Z,20.9
2016-07-07T13:45:03.604Z,21.2
2016-07-07T14:00:03.610Z,21.4
2016-07-07T14:15:03.642Z,20.7
2016-07-07T14:30:07.489Z,21
2016-07-07T14:45:05.835Z,21.3
2016-07-07T15:00:08.767Z,21.5
2016-07-07T15:15:08.023Z,21.4
2016-07-07T15:30:01.643Z,21.2
2016-07-07T15:45:17.221Z,21.3
2016-07-07T16:00:01.646Z,21.4
2016-07-07T16:15:01.649Z,21.5
2016-07-07T16:30:01.701Z,21.7
2016-07-07T16:45:03.781Z,21.5
2016-07-07T17:00:01.655Z,21.4
2016-07-07T17:15:18.752Z,21.2
2016-07-07T17:30:06.758Z,20.9
2016-07-07T17:45:06.272Z,20.9
2016-07-07T18:00:07.984Z,20.6
2016-07-07T18:15:07.973Z,20.5
2016-07-07T18:30:03.675Z,20.2
2016-07-07T18:45:01.734Z,20
2016-07-07T19:00:01.701Z,19.8
2016-07-07T19:15:01.712Z,19.4
2016-07-07T19:30:07.925Z,19
2016-07-07T19:45:06.363Z,18.6
2016-07-07T20:00:14.736Z,18.1
2016-07-07T20:15:01.721Z,17.6
2016-07-07T20:30:06.325Z,17.5
2016-07-07T20:45:01.755Z,17.3
2016-07-07T21:00:01.791Z,16.9
2016-07-07T21:15:01.745Z,16.6
2016-07-07T21:30:06.403Z,16.4
2016-07-07T21:45:03.746Z,16.1
2016-07-07T22:00:07.966Z,15.9
2016-07-07T22:15:13.107Z,15.9
2016-07-07T22:30:08.130Z,16
2016-07-07T22:45:03.765Z,16
2016-07-07T23:00:03.776Z,16
2016-07-07T23:15:07.983Z,15.9
2016-07-07T23:30:06.375Z,15.7
2016-07-07T23:45:06.435Z,15.7
